Williamstown, Pennsylvania
Current Conditions -  °F | °C
As of 7:58 PM on Saturday 25 Oct 2014 (Local Time) from KMUI Reporting Station
Broken Clouds Broken Clouds  
Wind Chill: 58°   Ceiling: 6000
Heat Index: 58°   Visibility: 10mi
Dew Point: 50°   Wind: 3mph
Humidity: 74%   Direction: 230°SW
Pressure: 29.68"   Gusts: NA
Location:  40.58°N, 76.62°W
Report Text: KMUI 252358Z AUTO 23003KT 10SM BKN060 14/10 A2968 RMK AO2 SLP054 T01430098 10206 20136 56006 $
Loading
Personal Weather Stations






























Interactive Weather Map
Tropical Storm Tracking
New forecast layout! Learn more

10-Day Weather Forecast

Advertisements
Track Severe Weather on mobile